Entiat, WA

6:41 AM PDT on July 27, 2016 (GMT -0700)
Deer Creek | | Change Station

Elev 2457 ft 47.63 °N, 120.14 °W | Updated 58 seconds ago

Clear
Clear
65.5 °F
Feels Like 65.5 °F
N
0.9
Wind Variable Wind from North

Today
High -- | Low -- °F
--% Chance of Precip.
Yesterday
High -- | Low -- °F
Precip. -- in
Pressure 30.01 in
Visibility 10.0 miles
Clouds Clear
Dew Point 55 °F
Humidity 68%
Rainfall Not available.
Snow Depth Not available.
5:32 AM 8:41 PM
Last Quarter, 43% visible
METAR KEAT 271255Z AUTO 33010KT 10SM CLR 20/13 A3004 RMK AO2 SLP161 T02000133
Pressure 30.01 in
Visibility 10.0 miles
Clouds Clear
Dew Point 55 °F
Humidity 68%
Rainfall Not available.
Snow Depth Not available.
5:32 AM 8:41 PM
Last Quarter, 43% visible
METAR KEAT 271255Z AUTO 33010KT 10SM CLR 20/13 A3004 RMK AO2 SLP161 T02000133

10-Day Weather Forecast

Almanac

Astronomy

Jul. 27, 2016 Rise Set
Actual Time
Civil Twilight
Nautical Twilight
Astronomical Twilight
Moon
Length of Visible Light
Length of Day
Tomorrow will be .
, % of the Moon is Illuminated

Today's Extremes

State Highs State Lows

Community

WunderPhotos

Upload Photos

1,927,844 photos uploaded!

WunderBlog® & News

Nearby

Air Quality

  Air Quality AQ Index Pollutant
Not available.

Snow Depth

Station Depth Elevation

Earthquake Activity

City Distance Mag. Time & Date
Minimum magnitude displayed is 2.5.

Coastal Water Temperatures

Place Temperature

Stations

Nearby Weather Stations

Station Location Temp. Windchill Dew Point Humidity Wind Precip. Elev Updated Type
                   

Watches & Warnings

There are currently no watches in effect.